sensor_id;sensor_type;location;lat;lon;timestamp;P1;durP1;ratioP1;P2;durP2;ratioP2
74679;SDS011;63211;48.548;2.704;2022-09-09T00:01:00;1.08;;;0.10;;
74679;SDS011;63211;48.548;2.704;2022-09-09T00:06:09;1.30;;;0.10;;
74679;SDS011;63211;48.548;2.704;2022-09-09T00:08:42;0.50;;;0.10;;
74679;SDS011;63211;48.548;2.704;2022-09-09T00:11:20;1.55;;;0.20;;
74679;SDS011;63211;48.548;2.704;2022-09-09T00:13:53;1.08;;;0.30;;
74679;SDS011;63211;48.548;2.704;2022-09-09T00:16:24;1.00;;;0.10;;
74679;SDS011;63211;48.548;2.704;2022-09-09T00:18:56;0.20;;;0.10;;
74679;SDS011;63211;48.548;2.704;2022-09-09T00:21:30;1.23;;;0.15;;
74679;SDS011;63211;48.548;2.704;2022-09-09T00:24:00;0.75;;;0.30;;
74679;SDS011;63211;48.548;2.704;2022-09-09T00:26:35;2.63;;;0.50;;
74679;SDS011;63211;48.548;2.704;2022-09-09T00:29:10;0.80;;;0.20;;
74679;SDS011;63211;48.548;2.704;2022-09-09T00:31:44;0.82;;;0.17;;
74679;SDS011;63211;48.548;2.704;2022-09-09T00:34:13;0.95;;;0.20;;
74679;SDS011;63211;48.548;2.704;2022-09-09T00:36:42;0.28;;;0.10;;
74679;SDS011;63211;48.548;2.704;2022-09-09T00:39:12;1.15;;;0.10;;
74679;SDS011;63211;48.548;2.704;2022-09-09T00:41:54;0.25;;;0.10;;
74679;SDS011;63211;48.548;2.704;2022-09-09T00:44:34;0.85;;;0.10;;
74679;SDS011;63211;48.548;2.704;2022-09-09T00:47:08;0.30;;;0.20;;
74679;SDS011;63211;48.548;2.704;2022-09-09T00:49:45;1.75;;;0.20;;
74679;SDS011;63211;48.548;2.704;2022-09-09T00:52:26;1.33;;;0.28;;
74679;SDS011;63211;48.548;2.704;2022-09-09T00:55:03;0.60;;;0.20;;
74679;SDS011;63211;48.548;2.704;2022-09-09T00:57:36;2.35;;;0.30;;
74679;SDS011;63211;48.548;2.704;2022-09-09T01:00:19;0.65;;;0.20;;
74679;SDS011;63211;48.548;2.704;2022-09-09T01:02:51;2.78;;;0.40;;
74679;SDS011;63211;48.548;2.704;2022-09-09T01:05:25;0.98;;;0.20;;
74679;SDS011;63211;48.548;2.704;2022-09-09T01:07:58;0.50;;;0.10;;
74679;SDS011;63211;48.548;2.704;2022-09-09T01:10:29;0.40;;;0.10;;
74679;SDS011;63211;48.548;2.704;2022-09-09T01:13:02;1.63;;;0.30;;
74679;SDS011;63211;48.548;2.704;2022-09-09T01:15:36;1.92;;;0.30;;
74679;SDS011;63211;48.548;2.704;2022-09-09T01:18:07;0.68;;;0.20;;
74679;SDS011;63211;48.548;2.704;2022-09-09T01:20:39;0.90;;;0.30;;
74679;SDS011;63211;48.548;2.704;2022-09-09T01:26:11;0.88;;;0.28;;
74679;SDS011;63211;48.548;2.704;2022-09-09T01:28:43;1.50;;;0.10;;
74679;SDS011;63211;48.548;2.704;2022-09-09T01:31:13;1.63;;;0.10;;
74679;SDS011;63211;48.548;2.704;2022-09-09T01:33:43;0.82;;;0.20;;
74679;SDS011;63211;48.548;2.704;2022-09-09T01:36:10;0.85;;;0.15;;
74679;SDS011;63211;48.548;2.704;2022-09-09T01:38:43;0.35;;;0.10;;
74679;SDS011;63211;48.548;2.704;2022-09-09T01:41:11;0.38;;;0.20;;
74679;SDS011;63211;48.548;2.704;2022-09-09T01:43:37;1.70;;;0.30;;
74679;SDS011;63211;48.548;2.704;2022-09-09T01:46:04;1.00;;;0.20;;
74679;SDS011;63211;48.548;2.704;2022-09-09T01:55:15;0.75;;;0.30;;
74679;SDS011;63211;48.548;2.704;2022-09-09T01:57:45;0.25;;;0.17;;
74679;SDS011;63211;48.548;2.704;2022-09-09T02:00:22;0.17;;;0.05;;
74679;SDS011;63211;48.548;2.704;2022-09-09T02:02:56;0.93;;;0.20;;
74679;SDS011;63211;48.548;2.704;2022-09-09T02:05:35;0.32;;;0.10;;
74679;SDS011;63211;48.548;2.704;2022-09-09T02:08:05;0.57;;;0.10;;
74679;SDS011;63211;48.548;2.704;2022-09-09T02:10:36;1.38;;;0.38;;
74679;SDS011;63211;48.548;2.704;2022-09-09T02:13:08;0.95;;;0.10;;
74679;SDS011;63211;48.548;2.704;2022-09-09T02:18:08;0.88;;;0.22;;
74679;SDS011;63211;48.548;2.704;2022-09-09T02:20:38;1.27;;;0.25;;
74679;SDS011;63211;48.548;2.704;2022-09-09T02:23:06;1.80;;;0.17;;
74679;SDS011;63211;48.548;2.704;2022-09-09T02:25:35;2.25;;;0.35;;
74679;SDS011;63211;48.548;2.704;2022-09-09T02:28:03;1.77;;;0.60;;
74679;SDS011;63211;48.548;2.704;2022-09-09T02:30:34;1.63;;;0.10;;
74679;SDS011;63211;48.548;2.704;2022-09-09T02:33:03;0.95;;;0.10;;
74679;SDS011;63211;48.548;2.704;2022-09-09T02:35:33;1.85;;;0.15;;
74679;SDS011;63211;48.548;2.704;2022-09-09T02:38:04;1.17;;;0.20;;
74679;SDS011;63211;48.548;2.704;2022-09-09T02:40:34;1.45;;;0.20;;
74679;SDS011;63211;48.548;2.704;2022-09-09T02:43:00;1.67;;;0.28;;
74679;SDS011;63211;48.548;2.704;2022-09-09T02:45:30;1.02;;;0.17;;
74679;SDS011;63211;48.548;2.704;2022-09-09T02:48:05;1.00;;;0.28;;
74679;SDS011;63211;48.548;2.704;2022-09-09T02:50:41;0.60;;;0.20;;
74679;SDS011;63211;48.548;2.704;2022-09-09T02:53:13;0.43;;;0.08;;
74679;SDS011;63211;48.548;2.704;2022-09-09T02:55:45;0.88;;;0.10;;
74679;SDS011;63211;48.548;2.704;2022-09-09T02:58:14;1.67;;;0.15;;
74679;SDS011;63211;48.548;2.704;2022-09-09T03:00:43;1.15;;;0.10;;
74679;SDS011;63211;48.548;2.704;2022-09-09T03:03:13;0.25;;;0.10;;
74679;SDS011;63211;48.548;2.704;2022-09-09T03:05:41;2.15;;;0.30;;
74679;SDS011;63211;48.548;2.704;2022-09-09T03:08:07;1.48;;;0.03;;
74679;SDS011;63211;48.548;2.704;2022-09-09T03:10:34;1.23;;;0.20;;
74679;SDS011;63211;48.548;2.704;2022-09-09T03:13:02;1.90;;;0.20;;
74679;SDS011;63211;48.548;2.704;2022-09-09T03:15:29;0.30;;;0.10;;
74679;SDS011;63211;48.548;2.704;2022-09-09T03:17:56;0.60;;;0.10;;
74679;SDS011;63211;48.548;2.704;2022-09-09T03:20:24;2.38;;;0.43;;
74679;SDS011;63211;48.548;2.704;2022-09-09T03:22:52;0.30;;;0.10;;
74679;SDS011;63211;48.548;2.704;2022-09-09T03:25:19;1.63;;;0.20;;
74679;SDS011;63211;48.548;2.704;2022-09-09T03:27:49;0.50;;;0.20;;
74679;SDS011;63211;48.548;2.704;2022-09-09T03:30:18;1.88;;;0.43;;
74679;SDS011;63211;48.548;2.704;2022-09-09T03:32:44;1.27;;;0.30;;
74679;SDS011;63211;48.548;2.704;2022-09-09T03:35:11;0.90;;;0.20;;
74679;SDS011;63211;48.548;2.704;2022-09-09T03:37:39;1.35;;;0.10;;
74679;SDS011;63211;48.548;2.704;2022-09-09T03:40:07;0.50;;;0.10;;
74679;SDS011;63211;48.548;2.704;2022-09-09T03:42:35;1.48;;;0.20;;
74679;SDS011;63211;48.548;2.704;2022-09-09T03:45:03;0.95;;;0.20;;
74679;SDS011;63211;48.548;2.704;2022-09-09T03:47:30;1.73;;;0.10;;
74679;SDS011;63211;48.548;2.704;2022-09-09T03:49:57;1.08;;;0.15;;
74679;SDS011;63211;48.548;2.704;2022-09-09T03:52:23;0.77;;;0.20;;
74679;SDS011;63211;48.548;2.704;2022-09-09T03:54:52;1.75;;;0.20;;
74679;SDS011;63211;48.548;2.704;2022-09-09T03:57:20;0.55;;;0.10;;
74679;SDS011;63211;48.548;2.704;2022-09-09T03:59:47;0.70;;;0.05;;
74679;SDS011;63211;48.548;2.704;2022-09-09T04:02:13;0.10;;;0.10;;
74679;SDS011;63211;48.548;2.704;2022-09-09T04:04:40;1.83;;;0.20;;
74679;SDS011;63211;48.548;2.704;2022-09-09T04:07:07;2.60;;;0.10;;
74679;SDS011;63211;48.548;2.704;2022-09-09T04:09:33;1.88;;;0.28;;
74679;SDS011;63211;48.548;2.704;2022-09-09T04:12:02;0.57;;;0.17;;
74679;SDS011;63211;48.548;2.704;2022-09-09T04:14:29;0.43;;;0.20;;
74679;SDS011;63211;48.548;2.704;2022-09-09T04:16:55;1.08;;;0.20;;
74679;SDS011;63211;48.548;2.704;2022-09-09T04:19:24;0.52;;;0.10;;
74679;SDS011;63211;48.548;2.704;2022-09-09T04:21:51;2.70;;;0.13;;
74679;SDS011;63211;48.548;2.704;2022-09-09T04:24:17;0.93;;;0.30;;
74679;SDS011;63211;48.548;2.704;2022-09-09T04:26:45;0.73;;;0.20;;
74679;SDS011;63211;48.548;2.704;2022-09-09T04:29:13;1.27;;;0.20;;
74679;SDS011;63211;48.548;2.704;2022-09-09T04:31:40;0.30;;;0.05;;
74679;SDS011;63211;48.548;2.704;2022-09-09T04:34:07;1.70;;;0.32;;
74679;SDS011;63211;48.548;2.704;2022-09-09T04:36:34;0.88;;;0.20;;
74679;SDS011;63211;48.548;2.704;2022-09-09T04:39:00;0.50;;;0.17;;
74679;SDS011;63211;48.548;2.704;2022-09-09T04:41:27;2.13;;;0.30;;
74679;SDS011;63211;48.548;2.704;2022-09-09T04:43:54;0.88;;;0.20;;
74679;SDS011;63211;48.548;2.704;2022-09-09T04:46:22;1.38;;;0.20;;
74679;SDS011;63211;48.548;2.704;2022-09-09T04:48:50;1.23;;;0.20;;
74679;SDS011;63211;48.548;2.704;2022-09-09T04:51:17;2.67;;;0.20;;
74679;SDS011;63211;48.548;2.704;2022-09-09T04:53:44;1.35;;;0.20;;
74679;SDS011;63211;48.548;2.704;2022-09-09T04:56:12;3.13;;;0.30;;
74679;SDS011;63211;48.548;2.704;2022-09-09T04:58:40;0.68;;;0.10;;
74679;SDS011;63211;48.548;2.704;2022-09-09T05:01:08;0.30;;;0.15;;
74679;SDS011;63211;48.548;2.704;2022-09-09T05:03:37;0.57;;;0.30;;
74679;SDS011;63211;48.548;2.704;2022-09-09T05:06:05;1.45;;;0.30;;
74679;SDS011;63211;48.548;2.704;2022-09-09T05:08:33;0.32;;;0.10;;
74679;SDS011;63211;48.548;2.704;2022-09-09T05:11:00;2.60;;;0.20;;
74679;SDS011;63211;48.548;2.704;2022-09-09T05:13:27;1.15;;;0.20;;
74679;SDS011;63211;48.548;2.704;2022-09-09T05:15:56;1.38;;;0.30;;
74679;SDS011;63211;48.548;2.704;2022-09-09T05:18:23;3.15;;;0.20;;
74679;SDS011;63211;48.548;2.704;2022-09-09T05:20:51;3.42;;;0.20;;
74679;SDS011;63211;48.548;2.704;2022-09-09T05:23:17;2.08;;;0.30;;
74679;SDS011;63211;48.548;2.704;2022-09-09T05:25:52;0.70;;;0.20;;
74679;SDS011;63211;48.548;2.704;2022-09-09T05:28:21;1.90;;;0.45;;
74679;SDS011;63211;48.548;2.704;2022-09-09T05:30:54;0.82;;;0.30;;
74679;SDS011;63211;48.548;2.704;2022-09-09T05:33:22;0.90;;;0.15;;
74679;SDS011;63211;48.548;2.704;2022-09-09T05:35:55;1.17;;;0.20;;
74679;SDS011;63211;48.548;2.704;2022-09-09T05:38:23;0.65;;;0.30;;
74679;SDS011;63211;48.548;2.704;2022-09-09T05:40:50;1.10;;;0.15;;
74679;SDS011;63211;48.548;2.704;2022-09-09T05:43:17;2.83;;;0.38;;
74679;SDS011;63211;48.548;2.704;2022-09-09T05:45:45;2.20;;;0.30;;
74679;SDS011;63211;48.548;2.704;2022-09-09T05:48:12;0.93;;;0.20;;
74679;SDS011;63211;48.548;2.704;2022-09-09T05:50:40;2.15;;;0.10;;
74679;SDS011;63211;48.548;2.704;2022-09-09T05:53:08;4.28;;;0.40;;
74679;SDS011;63211;48.548;2.704;2022-09-09T05:55:35;3.88;;;0.40;;
74679;SDS011;63211;48.548;2.704;2022-09-09T05:58:02;9.57;;;0.40;;
74679;SDS011;63211;48.548;2.704;2022-09-09T06:00:29;1.80;;;0.30;;
74679;SDS011;63211;48.548;2.704;2022-09-09T06:02:56;6.70;;;0.50;;
74679;SDS011;63211;48.548;2.704;2022-09-09T06:05:23;3.50;;;0.73;;
74679;SDS011;63211;48.548;2.704;2022-09-09T06:07:52;4.57;;;0.32;;
74679;SDS011;63211;48.548;2.704;2022-09-09T06:10:21;1.17;;;0.30;;
74679;SDS011;63211;48.548;2.704;2022-09-09T06:12:48;3.00;;;0.50;;
74679;SDS011;63211;48.548;2.704;2022-09-09T06:15:14;4.05;;;0.30;;
74679;SDS011;63211;48.548;2.704;2022-09-09T06:17:42;1.67;;;0.20;;
74679;SDS011;63211;48.548;2.704;2022-09-09T06:20:10;1.08;;;0.40;;
74679;SDS011;63211;48.548;2.704;2022-09-09T06:22:38;2.08;;;0.38;;
74679;SDS011;63211;48.548;2.704;2022-09-09T06:25:06;3.10;;;0.50;;
74679;SDS011;63211;48.548;2.704;2022-09-09T06:27:35;0.88;;;0.22;;
74679;SDS011;63211;48.548;2.704;2022-09-09T06:30:02;4.25;;;0.30;;
74679;SDS011;63211;48.548;2.704;2022-09-09T06:32:29;0.47;;;0.30;;
74679;SDS011;63211;48.548;2.704;2022-09-09T06:34:55;1.75;;;0.32;;
74679;SDS011;63211;48.548;2.704;2022-09-09T06:37:23;3.08;;;0.40;;
74679;SDS011;63211;48.548;2.704;2022-09-09T06:39:51;2.90;;;0.40;;
74679;SDS011;63211;48.548;2.704;2022-09-09T06:42:19;3.13;;;0.75;;
74679;SDS011;63211;48.548;2.704;2022-09-09T06:44:47;1.02;;;0.20;;
74679;SDS011;63211;48.548;2.704;2022-09-09T06:47:14;4.25;;;0.40;;
74679;SDS011;63211;48.548;2.704;2022-09-09T06:49:40;2.65;;;0.30;;
74679;SDS011;63211;48.548;2.704;2022-09-09T06:52:08;0.68;;;0.17;;
74679;SDS011;63211;48.548;2.704;2022-09-09T06:54:34;3.58;;;1.27;;
74679;SDS011;63211;48.548;2.704;2022-09-09T06:57:02;2.60;;;0.38;;
74679;SDS011;63211;48.548;2.704;2022-09-09T06:59:32;1.58;;;0.30;;
74679;SDS011;63211;48.548;2.704;2022-09-09T07:02:00;0.55;;;0.20;;
74679;SDS011;63211;48.548;2.704;2022-09-09T07:04:26;1.38;;;0.22;;
74679;SDS011;63211;48.548;2.704;2022-09-09T07:06:53;0.75;;;0.30;;
74679;SDS011;63211;48.548;2.704;2022-09-09T07:09:20;0.90;;;0.30;;
74679;SDS011;63211;48.548;2.704;2022-09-09T07:11:47;0.70;;;0.30;;
74679;SDS011;63211;48.548;2.704;2022-09-09T07:14:16;1.58;;;0.32;;
74679;SDS011;63211;48.548;2.704;2022-09-09T07:16:43;1.08;;;0.20;;
74679;SDS011;63211;48.548;2.704;2022-09-09T07:19:12;1.27;;;0.20;;
74679;SDS011;63211;48.548;2.704;2022-09-09T07:21:39;1.27;;;0.55;;
74679;SDS011;63211;48.548;2.704;2022-09-09T07:24:06;1.05;;;0.15;;
74679;SDS011;63211;48.548;2.704;2022-09-09T07:26:35;0.77;;;0.10;;
74679;SDS011;63211;48.548;2.704;2022-09-09T07:29:02;2.45;;;0.40;;
74679;SDS011;63211;48.548;2.704;2022-09-09T07:31:29;0.40;;;0.20;;
74679;SDS011;63211;48.548;2.704;2022-09-09T07:33:57;2.67;;;0.30;;
74679;SDS011;63211;48.548;2.704;2022-09-09T07:36:26;2.13;;;0.43;;
74679;SDS011;63211;48.548;2.704;2022-09-09T07:38:55;0.40;;;0.10;;
74679;SDS011;63211;48.548;2.704;2022-09-09T07:41:23;1.00;;;0.30;;
74679;SDS011;63211;48.548;2.704;2022-09-09T07:43:50;0.57;;;0.20;;
74679;SDS011;63211;48.548;2.704;2022-09-09T07:46:19;1.83;;;0.20;;
74679;SDS011;63211;48.548;2.704;2022-09-09T07:48:48;2.30;;;0.30;;
74679;SDS011;63211;48.548;2.704;2022-09-09T07:51:17;1.33;;;0.25;;
74679;SDS011;63211;48.548;2.704;2022-09-09T07:53:51;4.35;;;0.45;;
74679;SDS011;63211;48.548;2.704;2022-09-09T07:56:19;7.88;;;0.30;;
74679;SDS011;63211;48.548;2.704;2022-09-09T07:58:48;1.08;;;0.22;;
74679;SDS011;63211;48.548;2.704;2022-09-09T08:01:17;1.05;;;0.30;;
74679;SDS011;63211;48.548;2.704;2022-09-09T08:03:45;1.90;;;0.32;;
74679;SDS011;63211;48.548;2.704;2022-09-09T08:06:13;1.17;;;0.10;;
74679;SDS011;63211;48.548;2.704;2022-09-09T08:08:40;1.05;;;0.30;;
74679;SDS011;63211;48.548;2.704;2022-09-09T08:11:10;0.60;;;0.17;;
74679;SDS011;63211;48.548;2.704;2022-09-09T08:13:40;1.02;;;0.30;;
74679;SDS011;63211;48.548;2.704;2022-09-09T08:16:08;0.57;;;0.15;;
74679;SDS011;63211;48.548;2.704;2022-09-09T08:18:36;0.45;;;0.10;;
74679;SDS011;63211;48.548;2.704;2022-09-09T08:21:10;1.13;;;0.20;;
74679;SDS011;63211;48.548;2.704;2022-09-09T08:23:39;1.27;;;0.17;;
74679;SDS011;63211;48.548;2.704;2022-09-09T08:26:06;0.63;;;0.10;;
74679;SDS011;63211;48.548;2.704;2022-09-09T08:28:37;1.27;;;0.20;;
74679;SDS011;63211;48.548;2.704;2022-09-09T08:31:05;1.73;;;0.47;;
74679;SDS011;63211;48.548;2.704;2022-09-09T08:33:33;1.17;;;0.10;;
74679;SDS011;63211;48.548;2.704;2022-09-09T08:36:01;1.40;;;0.30;;
74679;SDS011;63211;48.548;2.704;2022-09-09T08:38:28;0.57;;;0.25;;
74679;SDS011;63211;48.548;2.704;2022-09-09T08:40:56;0.40;;;0.20;;
74679;SDS011;63211;48.548;2.704;2022-09-09T08:43:32;0.47;;;0.22;;
74679;SDS011;63211;48.548;2.704;2022-09-09T08:46:02;1.55;;;0.22;;
74679;SDS011;63211;48.548;2.704;2022-09-09T08:48:42;1.40;;;0.20;;
74679;SDS011;63211;48.548;2.704;2022-09-09T08:51:17;0.98;;;0.20;;
74679;SDS011;63211;48.548;2.704;2022-09-09T08:53:47;1.45;;;0.32;;
74679;SDS011;63211;48.548;2.704;2022-09-09T08:56:16;0.30;;;0.10;;
74679;SDS011;63211;48.548;2.704;2022-09-09T08:58:47;0.82;;;0.22;;
74679;SDS011;63211;48.548;2.704;2022-09-09T09:01:19;0.90;;;0.20;;
74679;SDS011;63211;48.548;2.704;2022-09-09T09:04:03;1.27;;;0.30;;
74679;SDS011;63211;48.548;2.704;2022-09-09T09:06:41;0.30;;;0.10;;
74679;SDS011;63211;48.548;2.704;2022-09-09T09:09:18;1.42;;;0.20;;
74679;SDS011;63211;48.548;2.704;2022-09-09T09:11:50;0.43;;;0.10;;
74679;SDS011;63211;48.548;2.704;2022-09-09T09:14:20;1.65;;;0.20;;
74679;SDS011;63211;48.548;2.704;2022-09-09T09:16:51;0.95;;;0.20;;
74679;SDS011;63211;48.548;2.704;2022-09-09T09:19:19;1.17;;;0.13;;
74679;SDS011;63211;48.548;2.704;2022-09-09T09:21:48;0.55;;;0.17;;
74679;SDS011;63211;48.548;2.704;2022-09-09T09:24:20;2.95;;;0.10;;
74679;SDS011;63211;48.548;2.704;2022-09-09T09:26:49;0.38;;;0.10;;
74679;SDS011;63211;48.548;2.704;2022-09-09T09:29:18;0.50;;;0.20;;
74679;SDS011;63211;48.548;2.704;2022-09-09T09:31:47;0.68;;;0.20;;
74679;SDS011;63211;48.548;2.704;2022-09-09T09:34:19;1.48;;;0.20;;
74679;SDS011;63211;48.548;2.704;2022-09-09T09:36:46;0.50;;;0.20;;
74679;SDS011;63211;48.548;2.704;2022-09-09T09:39:24;1.10;;;0.30;;
74679;SDS011;63211;48.548;2.704;2022-09-09T09:41:52;1.17;;;0.20;;
74679;SDS011;63211;48.548;2.704;2022-09-09T09:44:22;1.00;;;0.22;;
74679;SDS011;63211;48.548;2.704;2022-09-09T09:46:52;1.30;;;0.20;;
74679;SDS011;63211;48.548;2.704;2022-09-09T09:49:19;2.47;;;0.30;;
74679;SDS011;63211;48.548;2.704;2022-09-09T09:51:46;1.85;;;0.20;;
74679;SDS011;63211;48.548;2.704;2022-09-09T09:54:17;0.77;;;0.15;;
74679;SDS011;63211;48.548;2.704;2022-09-09T09:56:49;0.73;;;0.28;;
74679;SDS011;63211;48.548;2.704;2022-09-09T09:59:19;1.48;;;0.20;;
74679;SDS011;63211;48.548;2.704;2022-09-09T10:01:48;0.28;;;0.10;;
74679;SDS011;63211;48.548;2.704;2022-09-09T10:04:16;1.65;;;0.30;;
74679;SDS011;63211;48.548;2.704;2022-09-09T10:06:45;2.88;;;0.32;;
74679;SDS011;63211;48.548;2.704;2022-09-09T10:09:20;1.45;;;0.20;;
74679;SDS011;63211;48.548;2.704;2022-09-09T10:11:51;1.85;;;0.20;;
74679;SDS011;63211;48.548;2.704;2022-09-09T10:14:30;1.25;;;0.35;;
74679;SDS011;63211;48.548;2.704;2022-09-09T10:17:07;1.08;;;0.13;;
74679;SDS011;63211;48.548;2.704;2022-09-09T10:19:46;1.15;;;0.30;;
74679;SDS011;63211;48.548;2.704;2022-09-09T10:22:26;0.50;;;0.20;;
74679;SDS011;63211;48.548;2.704;2022-09-09T10:27:51;1.30;;;0.20;;
74679;SDS011;63211;48.548;2.704;2022-09-09T10:30:33;1.15;;;0.25;;
74679;SDS011;63211;48.548;2.704;2022-09-09T10:33:09;0.93;;;0.20;;
74679;SDS011;63211;48.548;2.704;2022-09-09T10:35:43;2.17;;;0.30;;
74679;SDS011;63211;48.548;2.704;2022-09-09T10:40:50;0.70;;;0.30;;
74679;SDS011;63211;48.548;2.704;2022-09-09T10:46:47;1.65;;;0.30;;
74679;SDS011;63211;48.548;2.704;2022-09-09T10:49:24;0.88;;;0.20;;
74679;SDS011;63211;48.548;2.704;2022-09-09T10:52:04;1.45;;;0.57;;
74679;SDS011;63211;48.548;2.704;2022-09-09T10:54:44;0.60;;;0.10;;
74679;SDS011;63211;48.548;2.704;2022-09-09T10:57:24;0.85;;;0.20;;
74679;SDS011;63211;48.548;2.704;2022-09-09T10:59:57;0.75;;;0.20;;
74679;SDS011;63211;48.548;2.704;2022-09-09T11:02:30;1.00;;;0.30;;
74679;SDS011;63211;48.548;2.704;2022-09-09T11:05:00;3.65;;;0.50;;
74679;SDS011;63211;48.548;2.704;2022-09-09T11:07:34;1.40;;;0.15;;
74679;SDS011;63211;48.548;2.704;2022-09-09T11:10:07;0.55;;;0.10;;
74679;SDS011;63211;48.548;2.704;2022-09-09T11:12:45;0.50;;;0.20;;
74679;SDS011;63211;48.548;2.704;2022-09-09T11:15:17;0.50;;;0.20;;
74679;SDS011;63211;48.548;2.704;2022-09-09T11:17:49;0.80;;;0.20;;
74679;SDS011;63211;48.548;2.704;2022-09-09T11:20:19;1.33;;;0.20;;
74679;SDS011;63211;48.548;2.704;2022-09-09T11:22:48;1.40;;;0.10;;
74679;SDS011;63211;48.548;2.704;2022-09-09T11:25:21;0.45;;;0.30;;
74679;SDS011;63211;48.548;2.704;2022-09-09T11:27:59;0.32;;;0.10;;
74679;SDS011;63211;48.548;2.704;2022-09-09T11:30:45;1.50;;;0.20;;
74679;SDS011;63211;48.548;2.704;2022-09-09T11:33:34;1.77;;;0.20;;
74679;SDS011;63211;48.548;2.704;2022-09-09T11:42:15;0.75;;;0.13;;
74679;SDS011;63211;48.548;2.704;2022-09-09T11:44:46;0.75;;;0.10;;
74679;SDS011;63211;48.548;2.704;2022-09-09T11:47:16;3.05;;;0.20;;
74679;SDS011;63211;48.548;2.704;2022-09-09T11:49:47;1.00;;;0.13;;
74679;SDS011;63211;48.548;2.704;2022-09-09T11:52:20;0.52;;;0.10;;
74679;SDS011;63211;48.548;2.704;2022-09-09T11:54:54;0.90;;;0.20;;
74679;SDS011;63211;48.548;2.704;2022-09-09T11:57:25;0.75;;;0.20;;
74679;SDS011;63211;48.548;2.704;2022-09-09T11:59:56;0.52;;;0.10;;
74679;SDS011;63211;48.548;2.704;2022-09-09T12:02:25;0.75;;;0.20;;
74679;SDS011;63211;48.548;2.704;2022-09-09T12:04:57;0.70;;;0.30;;
74679;SDS011;63211;48.548;2.704;2022-09-09T12:07:33;1.80;;;0.20;;
74679;SDS011;63211;48.548;2.704;2022-09-09T12:10:18;0.60;;;0.32;;
74679;SDS011;63211;48.548;2.704;2022-09-09T12:12:48;1.05;;;0.20;;
74679;SDS011;63211;48.548;2.704;2022-09-09T12:15:19;0.63;;;0.10;;
74679;SDS011;63211;48.548;2.704;2022-09-09T12:17:54;1.05;;;0.10;;
74679;SDS011;63211;48.548;2.704;2022-09-09T12:20:22;0.90;;;0.32;;
74679;SDS011;63211;48.548;2.704;2022-09-09T12:25:33;0.40;;;0.20;;
74679;SDS011;63211;48.548;2.704;2022-09-09T12:28:11;0.85;;;0.10;;
74679;SDS011;63211;48.548;2.704;2022-09-09T12:30:46;1.00;;;0.10;;
74679;SDS011;63211;48.548;2.704;2022-09-09T12:33:19;0.60;;;0.20;;
74679;SDS011;63211;48.548;2.704;2022-09-09T12:35:48;0.85;;;0.20;;
74679;SDS011;63211;48.548;2.704;2022-09-09T12:38:22;0.45;;;0.10;;
74679;SDS011;63211;48.548;2.704;2022-09-09T12:40:57;0.35;;;0.10;;
74679;SDS011;63211;48.548;2.704;2022-09-09T12:43:26;0.55;;;0.20;;
74679;SDS011;63211;48.548;2.704;2022-09-09T12:45:54;1.33;;;0.20;;
74679;SDS011;63211;48.548;2.704;2022-09-09T12:48:27;1.63;;;0.20;;
74679;SDS011;63211;48.548;2.704;2022-09-09T12:50:57;0.63;;;0.15;;
74679;SDS011;63211;48.548;2.704;2022-09-09T12:53:26;1.30;;;0.20;;
74679;SDS011;63211;48.548;2.704;2022-09-09T12:55:56;1.65;;;0.20;;
74679;SDS011;63211;48.548;2.704;2022-09-09T12:58:24;0.60;;;0.10;;
74679;SDS011;63211;48.548;2.704;2022-09-09T13:00:53;0.65;;;0.10;;
74679;SDS011;63211;48.548;2.704;2022-09-09T13:03:22;0.43;;;0.10;;
74679;SDS011;63211;48.548;2.704;2022-09-09T13:05:51;0.60;;;0.10;;
74679;SDS011;63211;48.548;2.704;2022-09-09T13:08:18;1.70;;;0.10;;
74679;SDS011;63211;48.548;2.704;2022-09-09T13:10:46;0.30;;;0.10;;
74679;SDS011;63211;48.548;2.704;2022-09-09T13:13:19;0.40;;;0.15;;
74679;SDS011;63211;48.548;2.704;2022-09-09T13:18:16;0.70;;;0.13;;
74679;SDS011;63211;48.548;2.704;2022-09-09T13:20:47;1.63;;;0.20;;
74679;SDS011;63211;48.548;2.704;2022-09-09T13:23:16;1.90;;;0.20;;
74679;SDS011;63211;48.548;2.704;2022-09-09T13:25:52;0.50;;;0.13;;
74679;SDS011;63211;48.548;2.704;2022-09-09T13:28:22;1.58;;;0.15;;
74679;SDS011;63211;48.548;2.704;2022-09-09T13:30:55;0.73;;;0.22;;
74679;SDS011;63211;48.548;2.704;2022-09-09T13:33:29;1.27;;;0.20;;
74679;SDS011;63211;48.548;2.704;2022-09-09T13:35:57;0.70;;;0.10;;
74679;SDS011;63211;48.548;2.704;2022-09-09T13:38:25;0.63;;;0.20;;
74679;SDS011;63211;48.548;2.704;2022-09-09T13:40:55;0.25;;;0.20;;
74679;SDS011;63211;48.548;2.704;2022-09-09T13:43:25;1.77;;;0.10;;
74679;SDS011;63211;48.548;2.704;2022-09-09T13:45:54;0.85;;;0.20;;
74679;SDS011;63211;48.548;2.704;2022-09-09T13:48:23;0.38;;;0.10;;
74679;SDS011;63211;48.548;2.704;2022-09-09T13:50:53;0.47;;;0.15;;
74679;SDS011;63211;48.548;2.704;2022-09-09T13:53:21;0.40;;;0.10;;
74679;SDS011;63211;48.548;2.704;2022-09-09T13:55:48;0.88;;;0.13;;
74679;SDS011;63211;48.548;2.704;2022-09-09T13:58:15;0.30;;;0.10;;
74679;SDS011;63211;48.548;2.704;2022-09-09T14:00:44;0.65;;;0.10;;
74679;SDS011;63211;48.548;2.704;2022-09-09T14:03:12;0.03;;;0.00;;
74679;SDS011;63211;48.548;2.704;2022-09-09T14:05:38;0.30;;;0.10;;
74679;SDS011;63211;48.548;2.704;2022-09-09T14:08:05;0.28;;;0.10;;
74679;SDS011;63211;48.548;2.704;2022-09-09T14:10:33;0.88;;;0.17;;
74679;SDS011;63211;48.548;2.704;2022-09-09T14:13:02;0.52;;;0.15;;
74679;SDS011;63211;48.548;2.704;2022-09-09T14:15:28;0.20;;;0.10;;
74679;SDS011;63211;48.548;2.704;2022-09-09T14:17:56;0.10;;;0.00;;
74679;SDS011;63211;48.548;2.704;2022-09-09T14:20:23;0.50;;;0.10;;
74679;SDS011;63211;48.548;2.704;2022-09-09T14:22:50;0.52;;;0.10;;
74679;SDS011;63211;48.548;2.704;2022-09-09T14:25:18;0.25;;;0.10;;
74679;SDS011;63211;48.548;2.704;2022-09-09T14:27:45;0.35;;;0.20;;
74679;SDS011;63211;48.548;2.704;2022-09-09T14:30:12;0.30;;;0.08;;
74679;SDS011;63211;48.548;2.704;2022-09-09T14:32:39;0.75;;;0.10;;
74679;SDS011;63211;48.548;2.704;2022-09-09T14:35:07;0.80;;;0.10;;
74679;SDS011;63211;48.548;2.704;2022-09-09T14:37:34;1.85;;;0.20;;
74679;SDS011;63211;48.548;2.704;2022-09-09T14:40:01;0.40;;;0.10;;
74679;SDS011;63211;48.548;2.704;2022-09-09T14:42:28;0.32;;;0.20;;
74679;SDS011;63211;48.548;2.704;2022-09-09T14:44:55;0.63;;;0.20;;
74679;SDS011;63211;48.548;2.704;2022-09-09T14:47:21;2.10;;;0.20;;
74679;SDS011;63211;48.548;2.704;2022-09-09T14:49:48;0.65;;;0.20;;
74679;SDS011;63211;48.548;2.704;2022-09-09T14:52:16;1.13;;;0.28;;
74679;SDS011;63211;48.548;2.704;2022-09-09T14:54:43;0.73;;;0.10;;
74679;SDS011;63211;48.548;2.704;2022-09-09T14:57:10;0.45;;;0.10;;
74679;SDS011;63211;48.548;2.704;2022-09-09T14:59:36;1.92;;;0.20;;
74679;SDS011;63211;48.548;2.704;2022-09-09T15:02:03;1.20;;;0.30;;
74679;SDS011;63211;48.548;2.704;2022-09-09T15:04:30;0.95;;;0.10;;
74679;SDS011;63211;48.548;2.704;2022-09-09T15:06:57;1.55;;;0.20;;
74679;SDS011;63211;48.548;2.704;2022-09-09T15:09:25;1.20;;;0.10;;
74679;SDS011;63211;48.548;2.704;2022-09-09T15:11:52;0.73;;;0.10;;
74679;SDS011;63211;48.548;2.704;2022-09-09T15:14:18;0.28;;;0.10;;
74679;SDS011;63211;48.548;2.704;2022-09-09T15:16:45;0.20;;;0.10;;
74679;SDS011;63211;48.548;2.704;2022-09-09T15:19:12;3.10;;;0.28;;
74679;SDS011;63211;48.548;2.704;2022-09-09T15:21:38;3.05;;;0.20;;
74679;SDS011;63211;48.548;2.704;2022-09-09T15:24:05;3.00;;;0.35;;
74679;SDS011;63211;48.548;2.704;2022-09-09T15:26:34;3.15;;;0.43;;
74679;SDS011;63211;48.548;2.704;2022-09-09T15:29:03;3.58;;;2.00;;
74679;SDS011;63211;48.548;2.704;2022-09-09T15:31:30;5.28;;;1.70;;
74679;SDS011;63211;48.548;2.704;2022-09-09T15:33:58;5.35;;;1.92;;
74679;SDS011;63211;48.548;2.704;2022-09-09T15:36:27;4.75;;;2.65;;
74679;SDS011;63211;48.548;2.704;2022-09-09T15:38:55;5.95;;;2.88;;